Cleo, Mississippi
Current Conditions -  °F | °C
As of 10:35 AM on Friday 31 Oct 2014 (Local Time) from KPIB Reporting Station
Clear Clear  
Wind Chill: 64°   Ceiling: Unl
Heat Index: 64°   Visibility: 10mi
Dew Point: 48°   Wind: 7mph
Humidity: 56%   Direction: 320°NW
Pressure: 30.04"   Gusts: NA
Location:  31.6875°N, 89.1116°W
Report Text: KPIB 311535Z AUTO 32006KT 10SM CLR 18/09 A3004 RMK AO1
Loading
Personal Weather Stations






























Interactive Weather Map New forecast layout! Learn more

10-Day Weather Forecast

Advertisements
Track Severe Weather on mobile